Terminal Aerodrome Forecast
Issued by NWS

Home | Current Version | Previous Version | Text Only | Print | Product List | Glossary On
Versions: 1 2 3 4 5 6 7 8 9 10 11 12 13 14 15 16 17 18 19 20 21
000
FTUS43 KDTX 280523
TAFMBS
TAF
KMBS 280523Z 2806/2906 18007KT 3SM BR BKN004
      TEMPO 2807/2808 -SHRA
     FM280800 23005KT 3SM -SHRA BR BKN007 OVC060
     FM281300 25007KT P6SM BKN020 OVC040
     FM281700 28010KT P6SM BKN040
     FM282000 32010KT P6SM SCT040
     FM290100 36005KT P6SM SKC=

USA.gov is the U.S. government's official web portal to all federal, state and local government web resources and services.